Time;durP1;ratioP1;P1;durP2;ratioP2;P2;SDS_P1;SDS_P2;PMS_P1;PMS_P2;Temp;Humidity;BMP_temperature;BMP_pressure;BME280_temperature;BME280_humidity;BME280_pressure;Samples;Min_cycle;Max_cycle;Signal;HPM_P1;HPM_P2
2022/12/20 00:00:14;;;;;;;2.83;2.15;;;11.60;99.90;;;;;;5028171;28;20087;-73
2022/12/20 00:02:40;;;;;;;3.33;1.90;;;11.70;99.90;;;;;;5028292;28;20489;-72
2022/12/20 00:05:06;;;;;;;2.53;1.88;;;11.70;99.90;;;;;;5028253;28;20025;-72
2022/12/20 00:07:31;;;;;;;2.60;2.05;;;11.70;99.90;;;;;;5027364;28;20068;-73
2022/12/20 00:09:57;;;;;;;2.92;1.70;;;11.70;99.90;;;;;;5027697;28;20068;-72
2022/12/20 00:12:23;;;;;;;2.60;1.83;;;11.70;99.90;;;;;;5027202;28;20092;-73
2022/12/20 00:14:49;;;;;;;2.45;1.55;;;11.70;99.90;;;;;;5027570;28;20050;-74
2022/12/20 00:17:14;;;;;;;3.95;2.00;;;11.70;99.90;;;;;;5027597;28;20036;-73
2022/12/20 00:19:42;;;;;;;4.97;2.00;;;11.70;99.90;;;;;;5027455;28;20092;-72
2022/12/20 00:22:07;;;;;;;3.45;2.03;;;11.70;99.90;;;;;;5027269;28;20459;-73
2022/12/20 00:24:33;;;;;;;4.30;2.00;;;11.70;99.90;;;;;;5028400;28;20037;-73
2022/12/20 00:26:59;;;;;;;3.83;2.38;;;11.80;99.90;;;;;;5027300;28;20030;-74
2022/12/20 00:29:24;;;;;;;3.95;1.67;;;11.80;99.90;;;;;;5027836;28;20025;-72
2022/12/20 00:31:50;;;;;;;3.30;2.30;;;11.80;99.90;;;;;;5026631;28;20351;-71
2022/12/20 00:34:15;;;;;;;6.68;2.05;;;11.90;99.90;;;;;;5028885;28;20112;-74
2022/12/20 00:36:41;;;;;;;2.85;1.90;;;11.80;99.90;;;;;;5027658;28;20092;-72
2022/12/20 00:39:08;;;;;;;3.03;1.80;;;11.90;99.90;;;;;;5027200;28;20040;-73
2022/12/20 00:41:33;;;;;;;2.65;1.77;;;11.90;99.90;;;;;;5027793;28;20033;-73
2022/12/20 00:44:01;;;;;;;2.53;1.83;;;11.90;99.90;;;;;;5029203;28;20029;-72
2022/12/20 00:46:27;;;;;;;2.95;1.80;;;11.90;99.90;;;;;;5026936;28;20377;-72
2022/12/20 00:48:54;;;;;;;4.47;2.10;;;11.90;99.90;;;;;;5027157;28;20021;-72
2022/12/20 00:51:23;;;;;;;3.42;2.20;;;11.90;99.90;;;;;;5027164;28;20029;-72
2022/12/20 00:53:48;;;;;;;2.70;2.05;;;11.90;99.90;;;;;;5027135;28;20036;-73
2022/12/20 00:56:14;;;;;;;2.83;2.08;;;11.90;99.90;;;;;;5027582;28;20108;-73
2022/12/20 00:58:41;;;;;;;4.97;2.42;;;11.90;99.90;;;;;;5029814;28;20452;-73
2022/12/20 01:01:17;;;;;;;2.50;1.80;;;11.90;99.90;;;;;;5030880;28;20100;-73
2022/12/20 01:03:42;;;;;;;5.68;1.88;;;11.80;99.90;;;;;;5032305;28;20029;-74
2022/12/20 01:06:09;;;;;;;2.50;1.75;;;11.80;99.90;;;;;;5031230;28;20120;-73
2022/12/20 01:08:35;;;;;;;4.72;2.05;;;11.80;99.90;;;;;;5030104;28;20033;-74
2022/12/20 01:11:15;;;;;;;2.47;2.10;;;11.80;99.90;;;;;;5030375;28;20017;-73
2022/12/20 01:13:44;;;;;;;4.43;1.83;;;11.90;99.90;;;;;;5030160;28;20034;-73
2022/12/20 01:16:22;;;;;;;2.75;1.58;;;11.90;99.90;;;;;;5030932;28;20508;-72
2022/12/20 01:18:49;;;;;;;2.78;1.83;;;11.90;99.90;;;;;;5030456;28;20025;-73
2022/12/20 01:21:16;;;;;;;2.45;2.25;;;11.90;99.90;;;;;;5029786;28;20033;-74
2022/12/20 01:23:42;;;;;;;6.45;1.85;;;12.00;99.90;;;;;;5031771;28;20028;-73
2022/12/20 01:26:11;;;;;;;5.50;1.88;;;11.90;99.90;;;;;;5029969;28;20030;-73
2022/12/20 01:28:39;;;;;;;5.45;2.22;;;11.80;99.90;;;;;;5030343;28;20032;-71
2022/12/20 01:31:09;;;;;;;4.35;2.53;;;11.90;99.90;;;;;;5029963;28;20466;-73
2022/12/20 01:33:35;;;;;;;4.68;2.00;;;11.80;99.90;;;;;;5029955;28;20060;-71
2022/12/20 01:36:03;;;;;;;5.85;2.50;;;11.90;99.90;;;;;;5030785;28;20056;-70
2022/12/20 01:38:31;;;;;;;3.38;2.40;;;11.80;99.90;;;;;;5031102;28;20022;-73
2022/12/20 01:40:57;;;;;;;4.53;2.30;;;11.80;99.90;;;;;;5030559;28;20027;-71
2022/12/20 01:43:25;;;;;;;4.13;2.40;;;11.80;99.90;;;;;;5030705;28;20387;-71
2022/12/20 01:45:51;;;;;;;3.42;2.13;;;11.80;99.90;;;;;;5029093;28;20029;-71
2022/12/20 01:48:24;;;;;;;3.95;2.25;;;11.80;99.90;;;;;;5028728;28;20175;-72
2022/12/20 01:50:51;;;;;;;4.22;2.40;;;11.80;99.90;;;;;;5030253;28;20025;-73
2022/12/20 01:53:20;;;;;;;6.82;2.70;;;11.80;99.90;;;;;;5030251;28;20060;-74
2022/12/20 01:55:46;;;;;;;4.75;2.25;;;11.80;99.90;;;;;;5030147;28;20032;-71
2022/12/20 01:58:15;;;;;;;3.95;2.38;;;11.80;99.90;;;;;;5030332;28;20021;-72
2022/12/20 02:00:41;;;;;;;5.65;2.80;;;11.70;99.90;;;;;;5029953;28;20484;-72
2022/12/20 02:03:10;;;;;;;3.40;2.15;;;11.80;99.90;;;;;;5030989;28;20026;-72
2022/12/20 02:05:39;;;;;;;6.72;2.40;;;11.70;99.90;;;;;;5029699;28;20029;-71
2022/12/20 02:08:06;;;;;;;3.53;2.28;;;11.70;99.90;;;;;;5029365;28;20040;-70
2022/12/20 02:10:58;;;;;;;4.85;1.90;;;11.70;99.90;;;;;;5029385;28;20018;-73
2022/12/20 02:13:35;;;;;;;4.93;2.00;;;11.70;99.90;;;;;;5029388;28;20021;-70
2022/12/20 02:16:03;;;;;;;5.50;2.10;;;11.80;99.90;;;;;;5062545;28;20037;-72
2022/12/20 02:18:38;;;;;;;4.75;2.08;;;11.80;99.90;;;;;;5030101;28;20021;-74
2022/12/20 02:21:48;;;;;;;4.35;2.03;;;11.80;99.90;;;;;;5029364;28;20120;-70
2022/12/20 02:25:00;;;;;;;3.08;2.30;;;11.70;99.90;;;;;;5028281;28;20507;-72
2022/12/20 02:28:00;;;;;;;3.78;2.05;;;11.70;99.90;;;;;;5032172;28;20034;-72
2022/12/20 02:30:32;;;;;;;3.13;2.35;;;11.80;99.90;;;;;;5031977;28;20041;-72
2022/12/20 02:33:11;;;;;;;4.90;2.08;;;11.80;99.90;;;;;;5033491;28;20022;-72
2022/12/20 02:35:38;;;;;;;3.25;2.42;;;11.80;99.90;;;;;;5031232;28;20512;-72
2022/12/20 02:38:26;;;;;;;2.53;1.95;;;11.80;99.90;;;;;;5033828;28;20029;-73
2022/12/20 02:40:57;;;;;;;3.38;2.28;;;11.80;99.90;;;;;;5031354;28;20592;-72
2022/12/20 02:46:09;;;;;;;4.65;2.35;;;11.80;99.90;;;;;;5032677;28;20045;-73
2022/12/20 02:48:37;;;;;;;2.85;2.15;;;11.80;99.90;;;;;;5033697;28;20099;-73
2022/12/20 02:51:05;;;;;;;3.45;2.50;;;11.80;99.90;;;;;;5033305;28;20017;-73
2022/12/20 02:53:32;;;;;;;3.63;2.22;;;11.80;99.90;;;;;;5036186;28;20028;-72
2022/12/20 02:56:18;;;;;;;4.03;1.95;;;11.80;99.90;;;;;;5052513;28;20079;-70
2022/12/20 02:58:59;;;;;;;2.22;1.85;;;11.90;99.90;;;;;;5053445;28;20025;-73
2022/12/20 03:01:57;;;;;;;4.18;2.40;;;11.80;99.90;;;;;;5053174;28;20020;-72
2022/12/20 03:04:29;;;;;;;2.35;2.08;;;12.00;99.90;;;;;;5040214;28;20033;-73
2022/12/20 03:07:07;;;;;;;3.95;2.22;;;12.00;99.90;;;;;;5052951;28;20029;-73
2022/12/20 03:09:35;;;;;;;2.20;2.00;;;11.90;99.90;;;;;;5038367;28;20021;-70
2022/12/20 03:12:01;;;;;;;3.20;1.77;;;11.90;99.90;;;;;;5032738;28;20056;-73
2022/12/20 03:14:27;;;;;;;3.53;2.22;;;12.00;99.90;;;;;;5033058;28;20068;-72
2022/12/20 03:16:53;;;;;;;3.78;1.80;;;12.00;99.90;;;;;;5032426;28;20053;-73
2022/12/20 03:19:19;;;;;;;3.70;1.73;;;12.00;99.90;;;;;;5031225;28;20100;-70
2022/12/20 03:21:45;;;;;;;2.13;1.80;;;12.00;99.90;;;;;;5032731;28;20441;-72
2022/12/20 03:24:12;;;;;;;7.88;2.30;;;12.00;99.90;;;;;;5031126;28;20513;-72
2022/12/20 03:26:39;;;;;;;3.03;2.22;;;12.00;99.90;;;;;;5023273;28;20493;-73
2022/12/20 03:29:05;;;;;;;5.40;2.00;;;12.00;99.90;;;;;;5033273;28;20424;-72
2022/12/20 03:31:30;;;;;;;4.70;2.17;;;12.10;99.90;;;;;;5031952;28;20101;-73
2022/12/20 03:33:56;;;;;;;3.47;1.98;;;12.00;99.90;;;;;;5031202;28;20112;-73
2022/12/20 03:36:22;;;;;;;3.95;2.20;;;12.00;99.90;;;;;;5030985;28;20067;-72
2022/12/20 03:38:52;;;;;;;4.78;2.38;;;12.10;99.90;;;;;;5032712;28;20033;-73
2022/12/20 03:41:20;;;;;;;5.40;2.50;;;12.00;99.90;;;;;;5031352;28;20044;-72
2022/12/20 03:43:47;;;;;;;5.82;2.58;;;12.10;99.90;;;;;;5032926;28;20017;-73
2022/12/20 03:46:13;;;;;;;3.45;2.20;;;12.00;99.90;;;;;;5032447;28;20037;-73
2022/12/20 03:48:38;;;;;;;3.20;2.17;;;12.10;99.90;;;;;;5032638;28;20025;-73
2022/12/20 03:51:04;;;;;;;2.28;1.88;;;12.00;99.90;;;;;;5031188;28;20120;-73
2022/12/20 03:53:30;;;;;;;2.40;2.00;;;12.00;99.90;;;;;;5047685;28;20017;-73
2022/12/20 03:55:56;;;;;;;2.88;2.30;;;12.10;99.90;;;;;;5032258;28;20037;-73
2022/12/20 03:58:21;;;;;;;3.28;2.42;;;12.00;99.90;;;;;;5031349;28;20541;-73
2022/12/20 04:00:47;;;;;;;3.30;2.05;;;12.00;99.90;;;;;;5031969;28;20037;-73
2022/12/20 04:03:13;;;;;;;3.53;1.92;;;12.00;99.90;;;;;;5032407;28;20034;-74
2022/12/20 04:05:38;;;;;;;4.93;1.95;;;12.00;99.90;;;;;;5032249;28;20056;-73
2022/12/20 04:08:04;;;;;;;3.63;2.03;;;12.00;99.90;;;;;;5032491;28;20033;-73
2022/12/20 04:10:30;;;;;;;3.67;1.90;;;12.00;99.90;;;;;;5041635;28;20028;-73
2022/12/20 04:12:55;;;;;;;3.15;2.28;;;12.00;99.90;;;;;;5048541;28;20025;-73
2022/12/20 04:15:21;;;;;;;5.68;2.20;;;12.10;99.90;;;;;;5031515;28;20041;-73
2022/12/20 04:17:46;;;;;;;2.33;2.08;;;12.10;99.90;;;;;;5032478;28;20097;-73
2022/12/20 04:20:18;;;;;;;6.13;2.40;;;12.10;99.90;;;;;;5032574;28;20049;-73
2022/12/20 04:22:48;;;;;;;5.20;2.28;;;12.00;99.90;;;;;;5031743;28;20029;-73
2022/12/20 04:25:15;;;;;;;2.58;2.17;;;12.00;99.90;;;;;;5031804;28;20486;-73
2022/12/20 04:27:42;;;;;;;2.58;2.20;;;12.10;99.90;;;;;;5032628;28;20045;-74
2022/12/20 04:30:09;;;;;;;2.78;1.88;;;12.00;99.90;;;;;;5033398;28;20103;-73
2022/12/20 04:32:35;;;;;;;4.82;2.20;;;12.10;99.90;;;;;;5052596;28;20025;-73
2022/12/20 04:35:01;;;;;;;2.38;1.58;;;12.10;99.90;;;;;;5054953;28;20035;-73
2022/12/20 04:37:26;;;;;;;3.25;1.90;;;12.00;99.90;;;;;;5035779;28;20484;-74
2022/12/20 04:39:52;;;;;;;4.18;2.40;;;12.10;99.90;;;;;;5036085;28;20386;-73
2022/12/20 04:42:18;;;;;;;3.92;2.17;;;12.10;99.90;;;;;;5035238;28;20036;-73
2022/12/20 04:44:43;;;;;;;5.47;2.70;;;12.10;99.90;;;;;;5035869;28;20029;-72
2022/12/20 04:47:09;;;;;;;5.68;2.22;;;12.10;99.90;;;;;;5055575;28;20049;-74
2022/12/20 04:49:35;;;;;;;4.15;2.20;;;12.10;99.90;;;;;;5052409;28;20061;-73
2022/12/20 04:53:46;;;;;;;4.20;2.45;;;12.10;99.90;;;;;;5035379;28;20465;-74
2022/12/20 04:54:46;;;;;;;3.05;1.90;;;12.10;99.90;;;;;;5035445;28;20437;-73
2022/12/20 04:57:12;;;;;;;5.82;2.50;;;12.10;99.90;;;;;;5034818;28;20075;-73
2022/12/20 04:59:38;;;;;;;2.97;2.42;;;12.10;99.90;;;;;;5035114;28;20034;-72
2022/12/20 05:02:03;;;;;;;5.07;2.28;;;12.10;99.90;;;;;;5035987;28;20105;-72
2022/12/20 05:04:29;;;;;;;3.10;2.35;;;12.10;99.90;;;;;;5035523;28;20025;-73
2022/12/20 05:06:55;;;;;;;4.53;2.15;;;12.10;99.90;;;;;;5035169;28;20032;-73
2022/12/20 05:09:20;;;;;;;5.40;2.28;;;12.10;99.90;;;;;;5035418;28;20108;-73
2022/12/20 05:11:46;;;;;;;6.10;2.75;;;12.10;99.90;;;;;;5037628;28;20017;-73
2022/12/20 05:14:11;;;;;;;3.83;2.33;;;12.10;99.90;;;;;;5034404;28;20410;-73
2022/12/20 05:16:37;;;;;;;4.20;2.47;;;12.10;99.90;;;;;;5035221;28;20037;-73
2022/12/20 05:19:03;;;;;;;3.15;2.30;;;12.00;99.90;;;;;;5035347;28;20080;-73
2022/12/20 05:26:59;;;;;;;4.40;2.58;;;12.10;99.90;;;;;;5035205;28;20192;-73
2022/12/20 05:29:24;;;;;;;5.68;2.80;;;12.00;99.90;;;;;;5035247;28;20498;-73
2022/12/20 05:31:50;;;;;;;5.78;2.13;;;12.00;99.90;;;;;;5035286;28;20095;-73
2022/12/20 05:34:16;;;;;;;6.38;2.58;;;12.00;99.90;;;;;;5034875;28;20038;-73
2022/12/20 05:36:42;;;;;;;5.07;2.15;;;12.00;99.90;;;;;;5034437;28;20021;-73
2022/12/20 05:39:08;;;;;;;3.97;2.10;;;12.10;99.90;;;;;;5034732;28;20033;-73
2022/12/20 05:41:34;;;;;;;2.67;2.13;;;12.10;99.90;;;;;;5033792;28;20021;-72
2022/12/20 05:43:59;;;;;;;4.00;1.98;;;12.00;99.90;;;;;;5033337;28;20532;-73
2022/12/20 05:46:25;;;;;;;2.72;2.10;;;12.00;99.90;;;;;;5034757;28;20385;-73
2022/12/20 05:48:51;;;;;;;3.13;2.33;;;12.00;99.90;;;;;;5034820;28;20025;-72
2022/12/20 05:51:17;;;;;;;2.97;2.03;;;12.00;99.90;;;;;;5050090;28;20025;-73
2022/12/20 05:53:42;;;;;;;2.90;2.17;;;12.00;99.90;;;;;;5034355;28;20032;-72
2022/12/20 05:56:08;;;;;;;3.78;2.25;;;12.00;99.90;;;;;;5032496;28;20374;-72
2022/12/20 05:58:33;;;;;;;4.43;2.20;;;11.90;99.90;;;;;;5034132;28;20057;-73
2022/12/20 06:01:01;;;;;;;3.13;1.88;;;12.00;99.90;;;;;;5034053;28;20528;-72
2022/12/20 06:03:27;;;;;;;4.72;2.00;;;12.00;99.90;;;;;;5034535;28;20082;-72
2022/12/20 06:05:52;;;;;;;4.32;2.60;;;12.00;99.90;;;;;;5035673;28;20025;-73
2022/12/20 06:08:20;;;;;;;3.97;2.00;;;11.90;99.90;;;;;;5034165;28;20036;-72
2022/12/20 06:10:47;;;;;;;2.25;1.90;;;12.00;99.90;;;;;;5034159;28;20155;-73
2022/12/20 06:13:12;;;;;;;5.30;2.10;;;11.90;99.90;;;;;;5033393;28;20572;-73
2022/12/20 06:15:38;;;;;;;10.23;1.95;;;11.90;99.90;;;;;;5033966;28;20029;-71
2022/12/20 06:18:04;;;;;;;4.15;1.63;;;11.90;99.90;;;;;;5034000;28;20466;-71
2022/12/20 06:20:30;;;;;;;4.65;1.70;;;11.80;99.90;;;;;;5049503;28;20063;-71
2022/12/20 06:22:56;;;;;;;5.75;2.47;;;11.90;99.90;;;;;;5054037;28;20474;-72
2022/12/20 06:25:22;;;;;;;3.42;2.28;;;11.90;99.90;;;;;;5041728;28;20037;-72
2022/12/20 06:27:47;;;;;;;3.63;2.53;;;11.80;99.90;;;;;;5033936;28;20530;-72
2022/12/20 06:30:15;;;;;;;5.30;2.13;;;11.90;99.90;;;;;;5046399;28;20017;-72
2022/12/20 06:32:40;;;;;;;2.35;2.15;;;11.80;99.90;;;;;;5054034;28;20021;-73
2022/12/20 06:35:06;;;;;;;6.30;3.25;;;11.80;99.90;;;;;;5039319;28;20095;-71
2022/12/20 06:37:32;;;;;;;4.05;2.28;;;11.80;99.90;;;;;;5032648;28;20049;-69
2022/12/20 06:39:59;;;;;;;8.07;5.60;;;11.80;99.90;;;;;;5032809;28;20061;-71
2022/12/20 06:42:24;;;;;;;4.45;3.80;;;11.80;99.90;;;;;;5033969;28;20028;-73
2022/12/20 06:44:50;;;;;;;2.95;1.90;;;11.80;99.90;;;;;;5037428;28;20037;-72
2022/12/20 06:47:15;;;;;;;2.83;1.90;;;11.80;99.90;;;;;;5053914;28;20482;-72
2022/12/20 06:49:41;;;;;;;2.50;1.65;;;11.80;99.90;;;;;;5042151;28;20076;-74
2022/12/20 06:52:06;;;;;;;2.53;1.77;;;11.80;99.90;;;;;;5032338;28;20021;-74
2022/12/20 06:54:32;;;;;;;3.63;1.65;;;11.80;99.90;;;;;;5032264;28;20033;-72
2022/12/20 06:56:58;;;;;;;2.97;2.15;;;11.80;99.90;;;;;;5032915;28;20112;-72
2022/12/20 06:59:23;;;;;;;3.38;2.17;;;11.70;99.90;;;;;;5033676;28;20032;-73
2022/12/20 07:01:49;;;;;;;2.95;1.88;;;11.70;99.90;;;;;;5033253;28;20489;-73
2022/12/20 07:04:14;;;;;;;2.42;1.50;;;11.70;99.90;;;;;;5032441;28;20028;-71
2022/12/20 07:06:40;;;;;;;6.40;1.52;;;11.70;99.90;;;;;;5050255;28;20382;-73
2022/12/20 07:09:05;;;;;;;3.05;1.80;;;11.70;99.90;;;;;;5038199;28;20497;-73
2022/12/20 07:11:31;;;;;;;3.72;1.60;;;11.70;99.90;;;;;;5032411;28;20033;-72
2022/12/20 07:13:57;;;;;;;4.95;1.60;;;11.70;99.90;;;;;;5032874;28;20390;-72
2022/12/20 07:16:23;;;;;;;2.42;1.30;;;11.70;99.90;;;;;;5065006;28;20029;-74
2022/12/20 07:18:52;;;;;;;2.58;1.55;;;11.70;99.90;;;;;;5033659;28;20032;-72
2022/12/20 07:21:19;;;;;;;2.50;1.40;;;11.70;99.90;;;;;;5030111;28;20025;-72
2022/12/20 07:23:46;;;;;;;3.97;1.75;;;11.70;99.90;;;;;;5032956;28;20025;-73
2022/12/20 07:26:12;;;;;;;3.03;1.77;;;11.70;99.90;;;;;;5032035;28;20026;-73
2022/12/20 07:28:38;;;;;;;4.88;1.70;;;11.70;99.90;;;;;;5031874;28;20559;-71
2022/12/20 07:31:04;;;;;;;3.28;2.25;;;11.70;99.90;;;;;;5033075;28;20029;-72
2022/12/20 07:33:30;;;;;;;2.40;1.67;;;11.80;99.90;;;;;;5032829;28;20029;-73
2022/12/20 07:36:01;;;;;;;3.78;2.05;;;11.80;99.90;;;;;;5031994;28;20033;-72
2022/12/20 07:38:28;;;;;;;2.15;1.98;;;11.80;99.90;;;;;;5030533;28;20104;-74
2022/12/20 07:40:53;;;;;;;4.75;2.22;;;11.80;99.90;;;;;;5052576;28;20551;-73
2022/12/20 07:43:19;;;;;;;3.38;1.60;;;11.80;99.90;;;;;;5042014;28;20104;-70
2022/12/20 07:45:46;;;;;;;4.88;1.98;;;11.90;99.90;;;;;;5032204;28;20091;-73
2022/12/20 07:48:12;;;;;;;2.50;1.50;;;11.90;99.90;;;;;;5030855;28;20029;-73
2022/12/20 07:50:39;;;;;;;3.00;1.50;;;11.80;99.90;;;;;;5032278;28;20546;-71
2022/12/20 07:53:07;;;;;;;3.08;1.30;;;11.90;99.90;;;;;;5031367;28;20052;-73
2022/12/20 07:55:33;;;;;;;3.80;1.50;;;11.90;99.90;;;;;;5031647;28;20038;-70
2022/12/20 07:58:05;;;;;;;3.80;1.70;;;12.00;99.90;;;;;;5031784;28;20152;-73
2022/12/20 08:00:31;;;;;;;3.50;1.38;;;12.00;99.90;;;;;;5045467;28;20030;-72
2022/12/20 08:03:07;;;;;;;2.92;1.50;;;12.10;99.90;;;;;;5045033;28;20047;-73
2022/12/20 08:05:35;;;;;;;2.92;1.40;;;12.10;99.90;;;;;;5050936;28;20028;-73
2022/12/20 08:08:01;;;;;;;2.38;1.35;;;12.10;99.90;;;;;;5052526;28;20028;-73
2022/12/20 08:10:27;;;;;;;1.95;1.40;;;12.10;99.90;;;;;;5035881;28;20597;-70
2022/12/20 08:12:54;;;;;;;2.25;1.40;;;12.00;99.90;;;;;;5035060;28;20112;-73
2022/12/20 08:15:21;;;;;;;3.20;1.30;;;12.00;99.90;;;;;;5035069;28;20033;-73
2022/12/20 08:17:48;;;;;;;1.83;1.67;;;12.10;99.90;;;;;;5036195;28;20021;-72
2022/12/20 08:20:14;;;;;;;3.28;1.45;;;12.10;99.90;;;;;;5036074;28;20025;-72
2022/12/20 08:22:39;;;;;;;3.95;2.00;;;12.10;99.90;;;;;;5036036;28;20025;-72
2022/12/20 08:25:06;;;;;;;2.30;1.50;;;12.10;99.90;;;;;;5042992;28;20032;-70
2022/12/20 08:27:32;;;;;;;3.78;1.65;;;12.10;99.90;;;;;;5037888;28;20051;-72
2022/12/20 08:29:58;;;;;;;5.05;1.70;;;12.10;99.90;;;;;;5034944;28;20029;-72
2022/12/20 08:32:24;;;;;;;2.95;1.83;;;12.10;99.90;;;;;;5018999;28;20036;-72
2022/12/20 08:34:50;;;;;;;4.43;2.00;;;12.10;99.90;;;;;;5016254;28;20038;-73
2022/12/20 08:37:16;;;;;;;3.03;1.80;;;12.10;99.90;;;;;;5015629;28;20042;-71
2022/12/20 08:39:42;;;;;;;2.22;1.80;;;12.10;99.90;;;;;;5015708;28;20065;-69
2022/12/20 08:42:07;;;;;;;2.08;1.63;;;12.20;99.90;;;;;;5015612;28;20036;-72
2022/12/20 08:44:33;;;;;;;2.65;1.42;;;12.20;99.90;;;;;;5026657;28;20033;-71
2022/12/20 08:46:59;;;;;;;4.25;2.03;;;12.20;99.90;;;;;;5034417;28;20501;-71
2022/12/20 08:49:24;;;;;;;5.97;2.25;;;12.20;99.90;;;;;;5031449;28;20145;-72
2022/12/20 08:51:50;;;;;;;4.43;2.17;;;12.20;99.90;;;;;;5034267;28;20470;-70
2022/12/20 08:54:16;;;;;;;3.38;1.80;;;12.20;99.90;;;;;;5034789;28;20041;-72
2022/12/20 08:56:42;;;;;;;5.05;1.70;;;12.20;99.90;;;;;;5035500;28;20072;-71
2022/12/20 08:59:07;;;;;;;3.13;1.83;;;12.20;99.90;;;;;;5035474;28;20438;-72
2022/12/20 09:01:33;;;;;;;4.47;1.73;;;12.20;99.90;;;;;;5035053;28;20101;-73
2022/12/20 09:03:59;;;;;;;2.22;1.75;;;12.20;99.90;;;;;;5035352;28;20014;-71
2022/12/20 09:06:25;;;;;;;3.55;1.67;;;12.10;99.90;;;;;;5035681;28;20097;-71
2022/12/20 09:08:51;;;;;;;2.97;1.80;;;12.10;99.90;;;;;;5050951;28;20021;-72
2022/12/20 09:11:23;;;;;;;2.97;1.63;;;12.10;99.90;;;;;;5055307;28;20036;-72
2022/12/20 09:13:52;;;;;;;2.95;2.03;;;12.20;99.90;;;;;;5055192;28;20032;-72
2022/12/20 09:16:20;;;;;;;3.53;2.10;;;12.20;99.90;;;;;;5034446;28;20041;-71
2022/12/20 09:18:54;;;;;;;3.15;1.80;;;12.20;99.90;;;;;;5034764;28;20022;-72
2022/12/20 09:21:20;;;;;;;2.92;1.83;;;12.20;99.90;;;;;;5035012;28;20048;-72
2022/12/20 09:23:48;;;;;;;2.60;2.03;;;12.20;99.90;;;;;;5033411;28;20039;-72
2022/12/20 09:26:15;;;;;;;3.17;1.80;;;12.20;99.90;;;;;;5034586;28;20488;-72
2022/12/20 09:28:42;;;;;;;3.75;2.00;;;12.10;99.90;;;;;;5033762;28;20068;-72
2022/12/20 09:31:14;;;;;;;7.05;2.40;;;12.10;99.90;;;;;;5033689;28;20025;-71
2022/12/20 09:33:41;;;;;;;3.00;1.83;;;12.10;99.90;;;;;;5034205;28;20096;-72
2022/12/20 09:36:10;;;;;;;2.35;1.83;;;12.20;99.90;;;;;;5030653;28;20026;-72
2022/12/20 09:38:35;;;;;;;4.30;2.05;;;12.20;99.90;;;;;;5034098;28;20021;-72
2022/12/20 09:41:03;;;;;;;5.10;1.77;;;12.20;99.90;;;;;;5033353;28;20385;-72
2022/12/20 09:43:30;;;;;;;2.47;1.83;;;12.20;99.90;;;;;;5033621;28;20462;-71
2022/12/20 09:45:59;;;;;;;3.80;1.85;;;12.30;99.90;;;;;;5034151;28;20112;-72
2022/12/20 09:48:31;;;;;;;2.75;1.83;;;12.30;99.90;;;;;;5034583;28;20370;-72
2022/12/20 09:51:27;;;;;;;5.78;2.60;;;12.30;99.90;;;;;;5034174;28;20033;-71
2022/12/20 09:54:23;;;;;;;8.07;2.50;;;12.40;99.90;;;;;;5032332;28;20340;-70
2022/12/20 09:57:16;;;;;;;4.57;1.75;;;12.50;99.90;;;;;;5033424;28;20052;-71
2022/12/20 09:59:42;;;;;;;;;;;12.50;99.90;;;;;;5032175;28;20080;-71
2022/12/20 10:02:14;;;;;;;3.53;1.75;;;12.50;99.90;;;;;;5032867;28;19913;-71
2022/12/20 10:04:39;;;;;;;6.63;2.08;;;12.50;99.90;;;;;;5033956;28;20104;-72
2022/12/20 10:07:26;;;;;;;3.70;1.50;;;12.50;99.90;;;;;;5032949;28;20116;-70
2022/12/20 10:10:25;;;;;;;3.22;2.28;;;12.50;99.90;;;;;;5031089;28;20026;-73
2022/12/20 10:13:05;;;;;;;4.18;1.80;;;12.60;99.90;;;;;;5031779;28;20096;-70
2022/12/20 10:15:39;;;;;;;2.63;2.22;;;12.60;99.90;;;;;;5019526;28;20038;-69
2022/12/20 10:18:35;;;;;;;3.65;1.85;;;12.60;99.90;;;;;;5011783;28;20033;-68
2022/12/20 10:21:28;;;;;;;4.78;2.10;;;12.70;99.90;;;;;;5025130;28;20052;-70
2022/12/20 10:24:02;;;;;;;4.57;1.92;;;12.70;99.90;;;;;;5031971;28;20043;-71
2022/12/20 10:26:28;;;;;;;3.97;2.25;;;12.60;99.90;;;;;;5032119;28;20025;-68
2022/12/20 10:28:54;;;;;;;2.90;1.90;;;12.50;99.90;;;;;;5032288;28;20033;-68
2022/12/20 10:31:20;;;;;;;4.93;2.63;;;12.50;99.90;;;;;;5031337;28;20025;-69
2022/12/20 10:33:45;;;;;;;14.60;2.80;;;12.50;99.90;;;;;;5033287;28;20018;-72
2022/12/20 10:36:28;;;;;;;6.68;2.10;;;12.40;99.90;;;;;;5032949;28;20025;-73
2022/12/20 10:38:57;;;;;;;3.38;2.35;;;12.50;99.90;;;;;;5033095;28;20030;-69
2022/12/20 10:41:27;;;;;;;6.10;3.30;;;12.50;99.90;;;;;;5030652;28;20214;-72
2022/12/20 10:44:00;;;;;;;5.03;2.70;;;12.50;99.90;;;;;;5032638;28;20584;-70
2022/12/20 10:46:41;;;;;;;3.63;2.72;;;12.60;99.90;;;;;;5032547;28;20033;-69
2022/12/20 10:49:37;;;;;;;6.28;2.58;;;12.60;99.90;;;;;;5033013;28;20109;-69
2022/12/20 10:52:12;;;;;;;7.00;3.17;;;12.60;99.90;;;;;;5032583;28;20029;-69
2022/12/20 10:54:38;;;;;;;4.00;2.90;;;12.50;99.90;;;;;;5031388;28;20428;-69
2022/12/20 10:57:20;;;;;;;7.60;2.95;;;12.60;99.90;;;;;;5031903;28;20090;-71
2022/12/20 10:59:53;;;;;;;3.88;2.63;;;12.50;99.90;;;;;;5032377;28;20112;-70
2022/12/20 11:02:32;;;;;;;5.85;3.33;;;12.50;99.90;;;;;;5028480;28;20229;-69
2022/12/20 11:05:09;;;;;;;7.10;2.70;;;12.60;99.90;;;;;;5001278;28;20029;-69
2022/12/20 11:07:36;;;;;;;3.90;2.65;;;12.50;99.90;;;;;;5026274;28;20021;-69
2022/12/20 11:10:23;;;;;;;4.63;3.00;;;12.60;99.90;;;;;;5026846;28;20529;-69
2022/12/20 11:12:56;;;;;;;6.95;2.47;;;12.60;99.90;;;;;;5026143;28;20504;-68
2022/12/20 11:15:34;;;;;;;5.30;2.88;;;12.60;99.90;;;;;;5025685;28;20033;-71
2022/12/20 11:18:12;;;;;;;4.07;2.80;;;12.60;99.90;;;;;;5029912;28;20022;-72
2022/12/20 11:20:57;;;;;;;4.75;2.75;;;12.60;99.90;;;;;;5026744;28;20033;-70
2022/12/20 11:23:32;;;;;;;6.47;2.72;;;12.60;99.90;;;;;;5028625;28;20099;-69
2022/12/20 11:26:24;;;;;;;4.15;2.72;;;12.60;99.90;;;;;;5027653;28;20381;-69
2022/12/20 11:29:27;;;;;;;5.13;3.15;;;12.60;99.90;;;;;;5027504;28;20025;-70
2022/12/20 11:32:32;;;;;;;7.32;5.53;;;12.60;99.90;;;;;;5028837;28;20032;-69
2022/12/20 11:35:13;;;;;;;8.70;3.00;;;12.60;99.90;;;;;;5027121;28;20041;-70
2022/12/20 11:38:09;;;;;;;6.82;2.85;;;12.70;99.90;;;;;;5027033;28;20032;-72
2022/12/20 11:40:56;;;;;;;7.70;2.70;;;12.60;99.90;;;;;;5026870;28;20075;-73
2022/12/20 11:43:34;;;;;;;5.20;3.10;;;12.60;99.90;;;;;;5027747;28;20446;-70
2022/12/20 11:46:31;;;;;;;4.32;2.67;;;12.60;99.90;;;;;;5027257;28;20311;-70
2022/12/20 11:49:07;;;;;;;7.10;2.97;;;12.60;99.90;;;;;;5027039;28;20034;-70
2022/12/20 11:51:51;;;;;;;6.18;3.08;;;12.60;99.90;;;;;;5027527;28;20378;-72
2022/12/20 11:54:37;;;;;;;5.60;3.17;;;12.60;99.90;;;;;;5026234;28;20075;-70
2022/12/20 11:57:26;;;;;;;6.53;3.15;;;12.70;99.90;;;;;;5025924;28;20375;-72
2022/12/20 12:00:01;;;;;;;5.10;2.63;;;12.70;99.90;;;;;;5027041;28;20021;-72
2022/12/20 12:02:39;;;;;;;5.05;2.72;;;12.70;99.90;;;;;;5027654;28;20029;-71
2022/12/20 12:05:34;;;;;;;6.47;3.00;;;12.70;99.90;;;;;;5027120;28;20034;-69
2022/12/20 12:08:05;;;;;;;6.93;3.50;;;12.60;99.90;;;;;;5024273;28;20032;-71
2022/12/20 12:10:34;;;;;;;5.45;2.75;;;12.70;99.90;;;;;;5026011;28;20121;-69
2022/12/20 12:13:12;;;;;;;5.40;3.67;;;12.70;99.90;;;;;;5026960;28;20033;-70
2022/12/20 12:15:56;;;;;;;4.13;2.95;;;12.70;99.90;;;;;;5026019;28;20089;-72
2022/12/20 12:18:30;;;;;;;6.70;3.40;;;12.70;99.90;;;;;;5026919;28;20423;-71
2022/12/20 12:21:06;;;;;;;5.40;3.35;;;12.60;99.90;;;;;;5026549;28;20056;-72
2022/12/20 12:23:49;;;;;;;7.15;3.95;;;12.60;99.90;;;;;;5026984;28;20032;-69
2022/12/20 12:26:24;;;;;;;5.20;3.42;;;12.70;99.90;;;;;;5025507;28;20021;-69
2022/12/20 12:28:58;;;;;;;8.48;4.03;;;12.60;99.90;;;;;;5026175;28;20148;-70
2022/12/20 12:31:42;;;;;;;8.90;4.18;;;12.70;99.90;;;;;;5026379;28;20068;-72
2022/12/20 12:34:29;;;;;;;13.88;4.70;;;12.70;99.90;;;;;;5027657;28;20045;-71
2022/12/20 12:37:18;;;;;;;6.60;4.00;;;12.60;99.90;;;;;;5027061;28;20034;-70
2022/12/20 12:40:11;;;;;;;5.47;4.07;;;12.60;99.90;;;;;;5026387;28;20025;-72
2022/12/20 12:43:10;;;;;;;7.82;5.32;;;12.60;99.90;;;;;;5026314;28;20151;-73
2022/12/20 12:45:47;;;;;;;5.43;3.80;;;12.60;99.90;;;;;;5058857;28;20108;-70
2022/12/20 12:48:34;;;;;;;11.27;3.75;;;12.50;99.90;;;;;;5026138;28;20029;-70
2022/12/20 12:51:01;;;;;;;6.10;4.10;;;12.40;99.90;;;;;;5026388;28;20021;-70
2022/12/20 12:53:52;;;;;;;6.47;4.50;;;12.30;99.90;;;;;;5027302;28;20377;-71
2022/12/20 12:56:27;;;;;;;5.47;4.55;;;12.30;99.90;;;;;;5030039;28;20033;-72
2022/12/20 12:59:05;;;;;;;8.23;4.10;;;12.30;99.90;;;;;;5029492;28;20038;-72
2022/12/20 13:01:54;;;;;;;8.77;4.65;;;12.30;99.90;;;;;;5030941;28;20044;-71
2022/12/20 13:04:20;;;;;;;7.70;5.07;;;12.30;99.90;;;;;;5030695;28;20029;-70
2022/12/20 13:06:54;;;;;;;9.13;4.70;;;12.30;99.90;;;;;;5030017;28;20037;-68
2022/12/20 13:09:35;;;;;;;7.70;4.95;;;12.20;99.90;;;;;;5030532;28;20478;-72
2022/12/20 13:12:33;;;;;;;6.65;4.88;;;12.30;99.90;;;;;;5030906;28;20025;-73
2022/12/20 13:14:58;;;;;;;6.72;4.55;;;12.20;99.90;;;;;;5027209;28;20443;-73